createdAt,value
2022-11-18T00:01:23.043Z,99269.22
2022-11-18T00:03:51.729Z,99280.66
2022-11-18T00:06:22.347Z,99267.44
2022-11-18T00:08:49.997Z,99273.44
2022-11-18T00:11:42.907Z,99276.28
2022-11-18T00:14:19.590Z,99279.63
2022-11-18T00:17:08.216Z,99270.88
2022-11-18T00:19:38.465Z,99286.50
2022-11-18T00:22:08.289Z,99283.16
2022-11-18T00:24:35.608Z,99287.47
2022-11-18T00:27:03.714Z,99271.38
2022-11-18T00:29:31.729Z,99276.88
2022-11-18T00:31:59.136Z,99267.00
2022-11-18T00:34:26.992Z,99272.81
2022-11-18T00:36:54.345Z,99270.88
2022-11-18T00:39:22.069Z,99264.50
2022-11-18T00:42:08.345Z,99268.28
2022-11-18T00:44:36.209Z,99264.59
2022-11-18T00:47:03.645Z,99274.31
2022-11-18T00:49:31.453Z,99265.84
2022-11-18T00:51:58.865Z,99261.84
2022-11-18T00:54:26.259Z,99264.34
2022-11-18T00:56:53.721Z,99262.09
2022-11-18T00:59:21.361Z,99264.38
2022-11-18T01:01:49.379Z,99262.16
2022-11-18T01:04:17.149Z,99247.75
2022-11-18T01:06:44.595Z,99242.81
2022-11-18T01:09:12.015Z,99235.94
2022-11-18T01:11:58.098Z,99242.19
2022-11-18T01:14:25.926Z,99236.91
2022-11-18T01:16:57.224Z,99251.75
2022-11-18T01:19:25.911Z,99250.19
2022-11-18T01:21:53.847Z,99260.59
2022-11-18T01:24:21.611Z,99257.75
2022-11-18T01:26:49.069Z,99245.94
2022-11-18T01:29:17.434Z,99243.44
2022-11-18T01:32:01.813Z,99248.00
2022-11-18T01:34:32.452Z,99246.63
2022-11-18T01:36:59.866Z,99237.34
2022-11-18T01:39:27.362Z,99238.25
2022-11-18T01:41:54.687Z,99225.34
2022-11-18T01:44:58.418Z,99234.34
2022-11-18T01:47:29.917Z,99224.41
2022-11-18T01:49:59.374Z,99211.63
2022-11-18T01:52:27.400Z,99195.50
2022-11-18T01:55:02.137Z,99185.81
2022-11-18T01:57:32.387Z,99195.97
2022-11-18T02:00:05.349Z,99184.97
2022-11-18T02:02:37.711Z,99170.66
2022-11-18T02:05:07.477Z,99159.06
2022-11-18T02:07:39.912Z,99143.84
2022-11-18T02:10:08.856Z,99125.91
2022-11-18T02:12:37.656Z,99125.53
2022-11-18T02:15:05.564Z,99105.88
2022-11-18T02:17:52.864Z,99106.34
2022-11-18T02:20:24.660Z,99109.69
2022-11-18T02:23:09.593Z,99097.13
2022-11-18T02:25:48.045Z,99069.53
2022-11-18T02:28:35.946Z,99076.09
2022-11-18T02:31:21.677Z,99073.66
2022-11-18T02:33:57.936Z,99075.22
2022-11-18T02:36:38.485Z,99052.59
2022-11-18T02:39:10.624Z,99059.97
2022-11-18T02:41:41.445Z,99056.53
2022-11-18T02:44:15.945Z,99066.06
2022-11-18T02:46:47.832Z,99064.22
2022-11-18T02:49:47.079Z,99058.88
2022-11-18T02:52:16.957Z,99047.16
2022-11-18T02:54:47.963Z,99051.97
2022-11-18T02:57:16.610Z,99047.16
2022-11-18T02:59:44.074Z,99057.97
2022-11-18T03:02:17.191Z,99056.34
2022-11-18T03:04:47.676Z,99073.28
2022-11-18T03:07:22.950Z,99083.00
2022-11-18T03:09:52.771Z,99076.31
2022-11-18T03:12:28.384Z,99087.56
2022-11-18T03:15:20.347Z,99093.16
2022-11-18T03:18:25.186Z,99117.03
2022-11-18T03:21:13.848Z,99127.38
2022-11-18T03:23:47.198Z,99133.97
2022-11-18T03:26:24.572Z,99130.44
2022-11-18T03:29:19.814Z,99119.72
2022-11-18T03:31:54.022Z,99101.41
2022-11-18T03:34:28.701Z,99094.97
2022-11-18T03:37:01.106Z,99072.25
2022-11-18T03:39:34.075Z,99052.16
2022-11-18T03:42:27.612Z,99067.56
2022-11-18T03:45:01.452Z,99050.81
2022-11-18T03:47:37.190Z,99028.00
2022-11-18T03:50:20.992Z,99023.91
2022-11-18T03:52:50.779Z,99038.44
2022-11-18T03:55:23.535Z,99019.50
2022-11-18T03:58:30.800Z,99031.72
2022-11-18T04:01:05.453Z,99033.59
2022-11-18T04:03:32.906Z,99040.19
2022-11-18T04:06:31.267Z,99042.53
2022-11-18T04:09:02.300Z,99058.44
2022-11-18T04:11:59.398Z,99058.84
2022-11-18T04:14:27.147Z,99065.19
2022-11-18T04:16:54.675Z,99070.09
2022-11-18T04:19:22.441Z,99071.84
2022-11-18T04:21:50.514Z,99066.66
2022-11-18T04:24:18.008Z,99064.75
2022-11-18T04:26:45.485Z,99064.72
2022-11-18T04:29:12.914Z,99069.53
2022-11-18T04:31:40.272Z,99078.38
2022-11-18T04:34:07.989Z,99076.31
2022-11-18T04:36:35.385Z,99058.94
2022-11-18T04:39:02.851Z,99057.66
2022-11-18T04:41:48.799Z,99037.31
2022-11-18T04:44:16.258Z,99038.25
2022-11-18T04:46:44.902Z,99042.38
2022-11-18T04:49:14.190Z,99028.72
2022-11-18T04:51:43.079Z,99034.66
2022-11-18T04:54:11.934Z,99030.94
2022-11-18T04:56:44.277Z,99026.22
2022-11-18T04:59:19.592Z,99029.22
2022-11-18T05:01:49.134Z,99031.19
2022-11-18T05:04:22.257Z,99027.63
2022-11-18T05:06:50.415Z,99031.16
2022-11-18T05:09:18.705Z,99040.09
2022-11-18T05:12:05.165Z,99034.81
2022-11-18T05:14:33.058Z,99030.53
2022-11-18T05:17:02.012Z,99034.03
2022-11-18T05:19:29.514Z,99026.75
2022-11-18T05:21:57.631Z,99035.34
2022-11-18T05:24:25.120Z,99040.06
2022-11-18T05:26:54.019Z,99030.78
2022-11-18T05:29:46.808Z,99025.38
2022-11-18T05:32:14.165Z,99018.56
2022-11-18T05:34:42.213Z,99011.53
2022-11-18T05:37:10.334Z,99014.63
2022-11-18T05:39:37.726Z,99012.81
2022-11-18T05:42:23.582Z,99012.03
2022-11-18T05:44:56.339Z,99012.31
2022-11-18T05:47:26.112Z,99021.50
2022-11-18T05:49:53.457Z,99017.66
2022-11-18T05:52:20.951Z,99028.13
2022-11-18T05:54:50.754Z,99029.41
2022-11-18T05:57:18.207Z,99034.13
2022-11-18T05:59:45.627Z,99038.25
2022-11-18T06:02:22.151Z,99039.72
2022-11-18T06:04:56.406Z,99042.47
2022-11-18T06:07:28.300Z,99050.47
2022-11-18T06:10:04.813Z,99047.88
2022-11-18T06:12:38.989Z,99054.69
2022-11-18T06:15:21.553Z,99050.88
2022-11-18T06:17:55.378Z,99049.19
2022-11-18T06:20:23.260Z,99055.47
2022-11-18T06:22:54.325Z,99063.63
2022-11-18T06:25:22.587Z,99054.97
2022-11-18T06:27:52.695Z,99054.00
2022-11-18T06:30:20.167Z,99048.25
2022-11-18T06:32:47.560Z,99049.28
2022-11-18T06:35:15.068Z,99055.38
2022-11-18T06:37:42.632Z,99067.34
2022-11-18T06:40:10.864Z,99076.97
2022-11-18T06:42:57.158Z,99068.34
2022-11-18T06:45:24.609Z,99082.97
2022-11-18T06:47:52.094Z,99071.00
2022-11-18T06:50:19.521Z,99072.81
2022-11-18T06:52:46.920Z,99070.88
2022-11-18T06:55:14.445Z,99078.00
2022-11-18T06:57:41.827Z,99089.88
2022-11-18T07:00:09.898Z,99073.34
2022-11-18T07:02:37.706Z,99069.16
2022-11-18T07:05:05.732Z,99071.72
2022-11-18T07:07:40.537Z,99088.16
2022-11-18T07:10:10.232Z,99082.03
2022-11-18T07:12:37.613Z,99093.47
2022-11-18T07:15:05.364Z,99097.50
2022-11-18T07:17:32.733Z,99114.13
2022-11-18T07:20:00.128Z,99118.31
2022-11-18T07:22:27.640Z,99117.56
2022-11-18T07:24:56.236Z,99109.03
2022-11-18T07:27:23.547Z,99125.38
2022-11-18T07:29:50.934Z,99136.75
2022-11-18T07:32:18.464Z,99125.31
2022-11-18T07:34:45.937Z,99141.13
2022-11-18T07:37:13.396Z,99138.53
2022-11-18T07:39:40.949Z,99141.47
2022-11-18T07:42:09.483Z,99151.97
2022-11-18T07:44:37.054Z,99147.66
2022-11-18T07:47:04.845Z,99148.53
2022-11-18T07:49:32.215Z,99166.69
2022-11-18T07:51:59.676Z,99173.63
2022-11-18T07:54:27.072Z,99152.72
2022-11-18T07:56:54.525Z,99160.91
2022-11-18T07:59:22.020Z,99164.97
2022-11-18T08:01:49.579Z,99164.81
2022-11-18T08:04:18.067Z,99161.50
2022-11-18T08:06:45.722Z,99163.59
2022-11-18T08:09:13.157Z,99154.63
2022-11-18T08:11:41.005Z,99144.88
2022-11-18T08:14:08.583Z,99155.59
2022-11-18T08:16:36.041Z,99153.66
2022-11-18T08:19:03.536Z,99140.84
2022-11-18T08:21:30.979Z,99135.94
2022-11-18T08:23:58.740Z,99144.69
2022-11-18T08:26:26.978Z,99133.00
2022-11-18T08:28:55.270Z,99146.56
2022-11-18T08:31:26.351Z,99132.72
2022-11-18T08:34:05.365Z,99140.94
2022-11-18T08:36:35.384Z,99151.59
2022-11-18T08:39:06.518Z,99133.16
2022-11-18T08:41:39.191Z,99135.56
2022-11-18T08:44:07.559Z,99134.44
2022-11-18T08:46:34.908Z,99134.34
2022-11-18T08:49:02.369Z,99120.72
2022-11-18T08:51:30.019Z,99129.78
2022-11-18T08:53:57.442Z,99130.22
2022-11-18T08:56:25.797Z,99139.59
2022-11-18T08:58:53.679Z,99140.66
2022-11-18T09:01:21.747Z,99143.22
2022-11-18T09:03:49.485Z,99145.44
2022-11-18T09:06:22.970Z,99142.50
2022-11-18T09:08:51.085Z,99138.03
2022-11-18T09:11:21.385Z,99149.66
2022-11-18T09:14:38.964Z,99152.59
2022-11-18T09:16:40.308Z,99154.44
2022-11-18T09:19:39.660Z,99153.00
2022-11-18T09:21:55.248Z,99129.50
2022-11-18T09:24:22.666Z,99145.94
2022-11-18T09:26:50.192Z,99151.38
2022-11-18T09:29:17.628Z,99157.69
2022-11-18T09:31:46.106Z,99146.13
2022-11-18T09:34:13.423Z,99151.09
2022-11-18T09:36:40.849Z,99139.91
2022-11-18T09:39:08.169Z,99153.66
2022-11-18T09:41:41.520Z,99161.50
2022-11-18T09:44:30.821Z,99162.66
2022-11-18T09:47:14.649Z,99163.59
2022-11-18T09:49:44.780Z,99168.09
2022-11-18T09:52:20.927Z,99164.06
2022-11-18T09:54:48.759Z,99158.44
2022-11-18T09:57:20.344Z,99153.03
2022-11-18T09:59:47.902Z,99145.66
2022-11-18T10:02:48.866Z,99161.72
2022-11-18T10:05:24.768Z,99164.59
2022-11-18T10:08:05.058Z,99162.66
2022-11-18T10:10:48.886Z,99164.00
2022-11-18T10:13:31.528Z,99162.56
2022-11-18T10:16:14.138Z,99156.31
2022-11-18T10:19:18.809Z,99154.22
2022-11-18T10:21:50.732Z,99150.50
2022-11-18T10:24:21.509Z,99161.13
2022-11-18T10:26:55.987Z,99160.84
2022-11-18T10:29:23.834Z,99157.69
2022-11-18T10:32:05.771Z,99154.06
2022-11-18T10:34:35.411Z,99139.84
2022-11-18T10:37:45.411Z,99136.03
2022-11-18T10:40:24.604Z,99127.31
2022-11-18T10:42:52.063Z,99120.84
2022-11-18T10:45:22.542Z,99126.09
2022-11-18T10:48:09.304Z,99128.94
2022-11-18T10:50:38.142Z,99137.38
2022-11-18T10:53:07.567Z,99139.72
2022-11-18T10:55:35.113Z,99134.28
2022-11-18T10:58:13.410Z,99130.56
2022-11-18T11:00:47.099Z,99138.28
2022-11-18T11:03:34.329Z,99129.56
2022-11-18T11:06:23.162Z,99128.06
2022-11-18T11:08:54.020Z,99117.47
2022-11-18T11:11:26.353Z,99137.22
2022-11-18T11:13:58.382Z,99130.94
2022-11-18T11:16:29.180Z,99125.03
2022-11-18T11:19:00.902Z,99142.25
2022-11-18T11:21:29.029Z,99131.75
2022-11-18T11:23:56.570Z,99130.50
2022-11-18T11:30:03.373Z,99138.97
2022-11-18T11:32:46.675Z,99147.84
2022-11-18T11:35:22.080Z,99142.03
2022-11-18T11:38:18.823Z,99138.97
2022-11-18T11:40:55.109Z,99143.28
2022-11-18T11:43:37.829Z,99143.47
2022-11-18T11:46:35.953Z,99145.97
2022-11-18T11:49:28.976Z,99143.56
2022-11-18T11:52:14.175Z,99143.69
2022-11-18T11:54:44.449Z,99146.03
2022-11-18T11:57:26.978Z,99140.34
2022-11-18T12:00:13.845Z,99153.44
2022-11-18T12:03:08.093Z,99146.00
2022-11-18T12:05:39.521Z,99144.09
2022-11-18T12:08:13.054Z,99137.97
2022-11-18T12:10:47.902Z,99133.63
2022-11-18T12:13:21.371Z,99132.44
2022-11-18T12:15:58.888Z,99141.66
2022-11-18T12:18:40.339Z,99145.00
2022-11-18T12:21:07.899Z,99146.34
2022-11-18T12:23:35.319Z,99140.34
2022-11-18T12:26:10.608Z,99146.50
2022-11-18T12:28:43.857Z,99150.78
2022-11-18T12:31:23.111Z,99143.19
2022-11-18T12:33:56.566Z,99152.72
2022-11-18T12:36:40.534Z,99148.00
2022-11-18T12:39:26.162Z,99159.03
2022-11-18T12:42:17.022Z,99167.25
2022-11-18T12:44:50.416Z,99158.09
2022-11-18T12:47:42.472Z,99145.16
2022-11-18T12:50:12.966Z,99133.94
2022-11-18T12:52:40.370Z,99141.31
2022-11-18T12:55:26.168Z,99145.50
2022-11-18T12:57:53.579Z,99135.63
2022-11-18T13:00:23.919Z,99134.78
2022-11-18T13:03:02.126Z,99140.66
2022-11-18T13:05:34.647Z,99134.66
2022-11-18T13:08:13.848Z,99143.69
2022-11-18T13:11:13.651Z,99141.84
2022-11-18T13:13:42.364Z,99148.41
2022-11-18T13:16:38.395Z,99145.84
2022-11-18T13:19:06.407Z,99155.78
2022-11-18T13:21:52.520Z,99159.94
2022-11-18T13:24:22.732Z,99157.41
2022-11-18T13:26:58.530Z,99153.09
2022-11-18T13:29:46.593Z,99155.78
2022-11-18T13:32:27.504Z,99156.75
2022-11-18T13:35:29.242Z,99151.38
2022-11-18T13:38:02.411Z,99147.66
2022-11-18T13:41:06.741Z,99147.44
2022-11-18T13:43:35.542Z,99155.59
2022-11-18T13:46:09.193Z,99162.56
2022-11-18T13:48:41.536Z,99151.16
2022-11-18T13:51:09.043Z,99156.97
2022-11-18T13:53:41.222Z,99155.41
2022-11-18T13:56:34.869Z,99152.88
2022-11-18T13:59:20.653Z,99161.13
2022-11-18T14:01:54.988Z,99174.22
2022-11-18T14:04:25.779Z,99182.06
2022-11-18T14:06:55.974Z,99181.44
2022-11-18T14:09:30.986Z,99188.06
2022-11-18T14:12:01.337Z,99188.56
2022-11-18T14:14:32.432Z,99186.22
2022-11-18T14:17:24.129Z,99189.38
2022-11-18T14:19:53.703Z,99189.69
2022-11-18T14:22:32.365Z,99190.84
2022-11-18T14:25:17.506Z,99187.53
2022-11-18T14:27:48.385Z,99191.34
2022-11-18T14:33:17.199Z,99194.47
2022-11-18T14:35:59.785Z,99195.00
2022-11-18T14:39:19.400Z,99201.31
2022-11-18T14:41:52.955Z,99204.50
2022-11-18T14:44:26.043Z,99202.53
2022-11-18T14:46:59.420Z,99202.84
2022-11-18T14:49:30.834Z,99203.25
2022-11-18T14:51:58.980Z,99215.13
2022-11-18T14:54:27.768Z,99219.16
2022-11-18T14:56:58.521Z,99204.91
2022-11-18T14:59:26.241Z,99197.53
2022-11-18T15:01:53.973Z,99199.41
2022-11-18T15:04:22.204Z,99200.63
2022-11-18T15:06:49.834Z,99207.97
2022-11-18T15:09:17.482Z,99210.38
2022-11-18T15:11:45.010Z,99223.84
2022-11-18T15:14:12.385Z,99218.03
2022-11-18T15:16:39.861Z,99221.28
2022-11-18T15:19:14.998Z,99229.69
2022-11-18T15:21:43.453Z,99245.97
2022-11-18T15:24:11.062Z,99237.84
2022-11-18T15:26:44.494Z,99251.41
2022-11-18T15:29:20.969Z,99254.38
2022-11-18T15:31:49.023Z,99264.13
2022-11-18T15:34:18.333Z,99247.88
2022-11-18T15:36:46.032Z,99262.88
2022-11-18T15:39:13.501Z,99252.78
2022-11-18T15:41:42.916Z,99270.16
2022-11-18T15:44:11.351Z,99267.97
2022-11-18T15:46:39.011Z,99274.66
2022-11-18T15:49:09.466Z,99273.13
2022-11-18T15:51:37.454Z,99282.47
2022-11-18T15:54:04.994Z,99272.13
2022-11-18T15:56:33.792Z,99272.91
2022-11-18T15:59:02.476Z,99274.13
2022-11-18T16:01:32.740Z,99268.03
2022-11-18T16:04:01.068Z,99270.78
2022-11-18T16:06:29.163Z,99262.56
2022-11-18T16:08:59.986Z,99253.00
2022-11-18T16:11:48.081Z,99255.78
2022-11-18T16:14:18.507Z,99253.50
2022-11-18T16:16:48.904Z,99256.41
2022-11-18T16:19:19.234Z,99274.41
2022-11-18T16:21:49.476Z,99261.94
2022-11-18T16:24:23.765Z,99257.19
2022-11-18T16:26:51.772Z,99262.53
2022-11-18T16:29:20.736Z,99258.94
2022-11-18T16:31:54.203Z,99281.69
2022-11-18T16:34:25.016Z,99285.22
2022-11-18T16:36:57.991Z,99294.66
2022-11-18T16:39:27.423Z,99294.41
2022-11-18T16:42:02.174Z,99305.97
2022-11-18T16:44:35.008Z,99317.50
2022-11-18T16:47:05.351Z,99325.78
2022-11-18T16:49:35.257Z,99334.81
2022-11-18T16:52:02.597Z,99356.38
2022-11-18T16:54:31.852Z,99356.91
2022-11-18T16:56:59.522Z,99364.91
2022-11-18T16:59:31.185Z,99364.91
2022-11-18T17:02:00.145Z,99367.91
2022-11-18T17:04:30.742Z,99379.44
2022-11-18T17:07:00.982Z,99380.50
2022-11-18T17:09:28.382Z,99374.47
2022-11-18T17:11:56.397Z,99371.00
2022-11-18T17:14:24.224Z,99372.03
2022-11-18T17:16:52.556Z,99367.28
2022-11-18T17:19:22.469Z,99372.94
2022-11-18T17:21:51.728Z,99386.25
2022-11-18T17:24:21.995Z,99382.94
2022-11-18T17:26:52.135Z,99385.69
2022-11-18T17:29:20.365Z,99393.53
2022-11-18T17:31:48.214Z,99391.91
2022-11-18T17:34:16.068Z,99406.09
2022-11-18T17:36:43.974Z,99407.22
2022-11-18T17:39:13.323Z,99410.91
2022-11-18T17:41:59.609Z,99410.41
2022-11-18T17:44:28.537Z,99417.44
2022-11-18T17:46:56.172Z,99420.78
2022-11-18T17:49:23.539Z,99444.13
2022-11-18T17:51:51.592Z,99449.03
2022-11-18T17:54:20.442Z,99451.06
2022-11-18T17:56:49.886Z,99459.84
2022-11-18T17:59:17.657Z,99477.63
2022-11-18T18:01:46.069Z,99463.25
2022-11-18T18:04:14.691Z,99460.66
2022-11-18T18:06:42.134Z,99459.81
2022-11-18T18:09:09.501Z,99467.00
2022-11-18T18:11:37.470Z,99481.28
2022-11-18T18:14:13.852Z,99479.25
2022-11-18T18:16:42.531Z,99478.94
2022-11-18T18:19:11.793Z,99468.88
2022-11-18T18:21:39.793Z,99466.56
2022-11-18T18:24:08.129Z,99465.38
2022-11-18T18:26:38.546Z,99478.91
2022-11-18T18:29:06.271Z,99468.53
2022-11-18T18:31:36.078Z,99470.13
2022-11-18T18:34:04.355Z,99472.03
2022-11-18T18:36:32.145Z,99454.59
2022-11-18T18:39:00.903Z,99450.34
2022-11-18T18:41:28.535Z,99456.69
2022-11-18T18:43:56.678Z,99452.56
2022-11-18T18:46:28.896Z,99440.66
2022-11-18T18:49:15.897Z,99459.44
2022-11-18T18:51:45.356Z,99471.78
2022-11-18T18:54:18.435Z,99457.50
2022-11-18T18:56:46.231Z,99466.94
2022-11-18T18:59:18.052Z,99462.47
2022-11-18T19:01:45.481Z,99460.84
2022-11-18T19:04:13.995Z,99459.03
2022-11-18T19:06:58.800Z,99447.75
2022-11-18T19:09:27.289Z,99464.03
2022-11-18T19:12:13.413Z,99451.47
2022-11-18T19:14:41.073Z,99459.41
2022-11-18T19:17:11.722Z,99466.25
2022-11-18T19:20:00.712Z,99467.19
2022-11-18T19:22:32.936Z,99472.72
2022-11-18T19:25:01.572Z,99461.06
2022-11-18T19:27:29.864Z,99446.09
2022-11-18T19:29:57.690Z,99463.97
2022-11-18T19:32:25.185Z,99444.03
2022-11-18T19:34:52.692Z,99449.16
2022-11-18T19:37:20.022Z,99454.59
2022-11-18T19:39:47.342Z,99462.41
2022-11-18T19:42:15.568Z,99463.34
2022-11-18T19:44:42.992Z,99477.28
2022-11-18T19:47:10.400Z,99462.47
2022-11-18T19:49:37.917Z,99468.66
2022-11-18T19:52:05.336Z,99458.28
2022-11-18T19:54:32.746Z,99463.03
2022-11-18T19:57:00.973Z,99476.34
2022-11-18T19:59:32.618Z,99477.78
2022-11-18T20:02:00.539Z,99492.31
2022-11-18T20:04:28.142Z,99476.56
2022-11-18T20:06:56.758Z,99497.88
2022-11-18T20:09:25.612Z,99498.66
2022-11-18T20:11:53.607Z,99490.72
2022-11-18T20:14:21.019Z,99510.16
2022-11-18T20:16:48.416Z,99512.75
2022-11-18T20:19:17.367Z,99525.03
2022-11-18T20:21:47.979Z,99516.41
2022-11-18T20:24:18.066Z,99536.09
2022-11-18T20:26:45.872Z,99533.31
2022-11-18T20:29:13.559Z,99524.88
2022-11-18T20:31:41.540Z,99523.06
2022-11-18T20:34:14.396Z,99532.56
2022-11-18T20:36:42.298Z,99526.75
2022-11-18T20:39:15.102Z,99534.03
2022-11-18T20:41:43.198Z,99515.91
2022-11-18T20:44:10.587Z,99538.38
2022-11-18T20:46:38.024Z,99536.78
2022-11-18T20:49:05.443Z,99533.72
2022-11-18T20:51:32.655Z,99551.19
2022-11-18T20:54:00.570Z,99559.00
2022-11-18T20:56:28.071Z,99558.84
2022-11-18T20:58:58.590Z,99561.81
2022-11-18T21:01:28.611Z,99558.06
2022-11-18T21:03:58.569Z,99553.28
2022-11-18T21:06:28.986Z,99552.41
2022-11-18T21:08:58.914Z,99542.63
2022-11-18T21:11:26.727Z,99544.84
2022-11-18T21:14:13.701Z,99548.81
2022-11-18T21:16:44.455Z,99556.44
2022-11-18T21:19:12.295Z,99546.66
2022-11-18T21:21:46.149Z,99545.47
2022-11-18T21:24:14.414Z,99559.31
2022-11-18T21:26:41.913Z,99554.78
2022-11-18T21:29:11.454Z,99544.63
2022-11-18T21:31:40.405Z,99561.28
2022-11-18T21:34:08.518Z,99563.69
2022-11-18T21:36:40.098Z,99555.53
2022-11-18T21:39:12.427Z,99544.91
2022-11-18T21:41:40.255Z,99557.53
2022-11-18T21:44:10.079Z,99558.13
2022-11-18T21:46:39.211Z,99544.47
2022-11-18T21:49:07.597Z,99556.91
2022-11-18T21:51:35.692Z,99556.25
2022-11-18T21:54:03.868Z,99543.97
2022-11-18T21:56:32.189Z,99538.66
2022-11-18T21:59:01.549Z,99557.53
2022-11-18T22:01:31.886Z,99560.31
2022-11-18T22:04:04.400Z,99570.59
2022-11-18T22:06:33.889Z,99573.47
2022-11-18T22:09:02.755Z,99575.06
2022-11-18T22:11:30.739Z,99566.97
2022-11-18T22:13:58.655Z,99566.03
2022-11-18T22:16:28.630Z,99580.13
2022-11-18T22:19:01.445Z,99585.31
2022-11-18T22:21:32.567Z,99587.97
2022-11-18T22:24:01.266Z,99589.22
2022-11-18T22:26:29.470Z,99585.06
2022-11-18T22:28:58.198Z,99593.50
2022-11-18T22:31:27.837Z,99594.50
2022-11-18T22:33:56.319Z,99594.38
2022-11-18T22:36:26.686Z,99607.34
2022-11-18T22:38:55.170Z,99614.75
2022-11-18T22:41:45.180Z,99612.59
2022-11-18T22:44:15.143Z,99620.34
2022-11-18T22:46:44.241Z,99619.97
2022-11-18T22:49:13.010Z,99624.59
2022-11-18T22:51:41.034Z,99636.06
2022-11-18T22:56:56.751Z,99630.81
2022-11-18T22:59:24.755Z,99651.50
2022-11-18T23:01:52.735Z,99631.25
2022-11-18T23:04:20.118Z,99641.47
2022-11-18T23:06:51.426Z,99632.19
2022-11-18T23:09:19.192Z,99644.41
2022-11-18T23:12:05.437Z,99646.91
2022-11-18T23:14:32.930Z,99663.03
2022-11-18T23:17:00.643Z,99664.53
2022-11-18T23:19:28.061Z,99667.38
2022-11-18T23:21:55.442Z,99675.47
2022-11-18T23:24:22.907Z,99674.16
2022-11-18T23:26:50.369Z,99681.97
2022-11-18T23:29:18.060Z,99670.63
2022-11-18T23:31:45.758Z,99680.97
2022-11-18T23:34:15.045Z,99673.13
2022-11-18T23:36:43.174Z,99687.56
2022-11-18T23:39:11.034Z,99675.44
2022-11-18T23:41:38.985Z,99679.38
2022-11-18T23:44:06.953Z,99673.97
2022-11-18T23:46:34.707Z,99680.41
2022-11-18T23:49:02.125Z,99687.34
2022-11-18T23:51:29.601Z,99691.91
2022-11-18T23:53:57.565Z,99676.41
2022-11-18T23:56:27.375Z,99694.09
2022-11-18T23:58:56.741Z,99676.00
